createdAt,value
2018-01-30T00:00:40.197Z,16.27
2018-01-30T00:03:06.243Z,14.90
2018-01-30T00:05:32.253Z,14.97
2018-01-30T00:07:58.253Z,20.60
2018-01-30T00:10:24.286Z,16.80
2018-01-30T00:12:50.269Z,14.23
2018-01-30T00:15:16.282Z,15.70
2018-01-30T00:17:42.288Z,17.67
2018-01-30T00:20:08.296Z,19.83
2018-01-30T00:22:34.301Z,20.07
2018-01-30T00:27:45.717Z,21.13
2018-01-30T00:30:11.741Z,20.50
2018-01-30T00:32:37.757Z,17.90
2018-01-30T00:35:03.765Z,17.53
2018-01-30T00:37:29.742Z,15.57
2018-01-30T00:39:55.744Z,19.33
2018-01-30T00:42:21.760Z,15.53
2018-01-30T00:50:21.244Z,14.47
2018-01-30T00:52:53.356Z,14.93
2018-01-30T00:55:19.364Z,12.90
2018-01-30T00:57:45.364Z,12.40
2018-01-30T01:00:11.340Z,15.87
2018-01-30T01:02:38.540Z,13.17
2018-01-30T01:05:04.541Z,14.87
2018-01-30T01:07:30.544Z,14.63
2018-01-30T01:09:56.549Z,15.20
2018-01-30T01:12:22.562Z,15.37
2018-01-30T01:14:49.657Z,12.50
2018-01-30T01:17:15.657Z,13.93
2018-01-30T01:19:41.665Z,9.77
2018-01-30T01:22:07.712Z,10.13
2018-01-30T01:24:44.185Z,14.43
2018-01-30T01:27:10.169Z,13.37
2018-01-30T01:29:36.149Z,13.80
2018-01-30T01:32:02.197Z,11.83
2018-01-30T01:34:35.529Z,12.43
2018-01-30T01:37:01.514Z,12.77
2018-01-30T01:39:27.521Z,14.70
2018-01-30T01:41:53.525Z,16.17
2018-01-30T01:44:19.685Z,17.63
2018-01-30T01:46:45.705Z,17.00
2018-01-30T01:49:11.709Z,16.83
2018-01-30T01:51:37.716Z,17.17
2018-01-30T01:54:07.204Z,17.03
2018-01-30T01:56:33.208Z,18.60
2018-01-30T01:58:59.185Z,17.13
2018-01-30T02:01:25.204Z,19.27
2018-01-30T02:04:01.977Z,17.73
2018-01-30T02:06:27.952Z,18.10
2018-01-30T02:08:53.940Z,16.60
2018-01-30T02:11:19.945Z,18.10
2018-01-30T02:13:57.480Z,17.97
2018-01-30T02:16:23.465Z,17.47
2018-01-30T02:18:49.472Z,17.70
2018-01-30T02:21:15.452Z,17.37
2018-01-30T02:23:45.145Z,18.20
2018-01-30T02:26:11.121Z,19.07
2018-01-30T02:28:37.136Z,20.00
2018-01-30T02:31:03.154Z,18.60
2018-01-30T02:33:34.729Z,18.17
2018-01-30T02:36:00.720Z,21.80
2018-01-30T02:38:26.701Z,18.60
2018-01-30T02:40:52.711Z,18.17
2018-01-30T02:43:23.781Z,16.13
2018-01-30T02:45:49.838Z,16.33
2018-01-30T02:48:15.820Z,13.33
2018-01-30T02:50:41.877Z,12.53
2018-01-30T02:53:11.282Z,13.87
2018-01-30T02:55:37.285Z,14.20
2018-01-30T02:58:03.293Z,17.20
2018-01-30T03:00:29.310Z,16.17
2018-01-30T03:03:09.457Z,15.13
2018-01-30T03:05:35.444Z,16.10
2018-01-30T03:08:01.428Z,15.33
2018-01-30T03:10:27.405Z,14.50
2018-01-30T03:12:57.368Z,15.77
2018-01-30T03:15:23.357Z,16.20
2018-01-30T03:17:49.364Z,19.27
2018-01-30T03:20:15.366Z,17.83
2018-01-30T03:22:51.364Z,16.93
2018-01-30T03:25:17.364Z,19.70
2018-01-30T03:27:43.388Z,24.00
2018-01-30T03:30:09.389Z,21.47
2018-01-30T03:32:44.008Z,21.53
2018-01-30T03:35:09.985Z,21.47
2018-01-30T03:37:35.972Z,20.87
2018-01-30T03:40:01.993Z,21.10
2018-01-30T03:42:32.736Z,18.60
2018-01-30T03:44:58.740Z,22.80
2018-01-30T03:47:24.717Z,21.90
2018-01-30T03:49:50.705Z,18.67
2018-01-30T03:52:20.273Z,16.00
2018-01-30T03:54:46.276Z,16.33
2018-01-30T03:57:12.277Z,16.67
2018-01-30T03:59:38.276Z,18.60
2018-01-30T04:02:04.253Z,18.37
2018-01-30T04:04:45.884Z,18.80
2018-01-30T04:07:11.901Z,19.20
2018-01-30T04:09:37.881Z,21.03
2018-01-30T04:12:03.861Z,21.30
2018-01-30T04:14:30.968Z,21.43
2018-01-30T04:16:56.977Z,20.00
2018-01-30T04:19:22.985Z,20.97
2018-01-30T04:21:48.984Z,19.17
2018-01-30T04:24:18.760Z,20.20
2018-01-30T04:26:44.776Z,19.90
2018-01-30T04:29:10.802Z,17.53
2018-01-30T04:31:36.831Z,18.13
2018-01-30T04:34:03.953Z,17.30
2018-01-30T04:36:29.957Z,18.07
2018-01-30T04:38:55.976Z,16.23
2018-01-30T04:41:21.952Z,14.53
2018-01-30T04:43:49.969Z,16.20
2018-01-30T04:46:15.977Z,18.13
2018-01-30T04:48:41.984Z,15.60
2018-01-30T04:51:07.956Z,16.13
2018-01-30T04:53:38.272Z,17.70
2018-01-30T04:56:04.277Z,16.20
2018-01-30T04:58:30.282Z,15.73
2018-01-30T05:00:56.284Z,19.93
2018-01-30T05:03:29.196Z,21.77
2018-01-30T05:05:55.208Z,20.10
2018-01-30T05:08:21.217Z,18.53
2018-01-30T05:10:47.221Z,21.03
2018-01-30T05:13:30.584Z,24.60
2018-01-30T05:15:56.561Z,23.93
2018-01-30T05:18:22.576Z,24.87
2018-01-30T05:20:48.589Z,29.50
2018-01-30T05:23:21.904Z,32.30
2018-01-30T05:25:47.984Z,37.40
2018-01-30T05:28:13.987Z,35.13
2018-01-30T05:30:39.985Z,36.27
2018-01-30T05:33:06.025Z,35.33
2018-01-30T05:35:32.004Z,31.53
2018-01-30T05:37:58.021Z,28.60
2018-01-30T05:40:24.009Z,24.83
2018-01-30T05:42:54.633Z,20.80
2018-01-30T05:45:20.649Z,24.23
2018-01-30T05:47:46.693Z,18.57
2018-01-30T05:50:12.708Z,20.37
2018-01-30T05:52:38.754Z,20.97
2018-01-30T05:55:04.768Z,20.73
2018-01-30T05:57:30.764Z,20.83
2018-01-30T05:59:56.769Z,21.60
2018-01-30T06:02:30.989Z,26.20
2018-01-30T06:04:56.993Z,29.07
2018-01-30T06:07:22.988Z,48.07
2018-01-30T06:09:48.968Z,47.83
2018-01-30T06:12:25.397Z,43.17
2018-01-30T06:21:33.341Z,22.77
2018-01-30T06:23:59.385Z,23.73
2018-01-30T06:26:25.373Z,19.23
2018-01-30T06:28:51.380Z,12.13
2018-01-30T06:31:17.365Z,12.83
2018-01-30T06:33:50.049Z,14.33
2018-01-30T06:36:16.025Z,84.00
2018-01-30T06:38:42.028Z,9.23
2018-01-30T06:41:08.000Z,4.93
2018-01-30T06:43:39.852Z,5.43
2018-01-30T06:46:05.874Z,5.13
2018-01-30T06:48:31.845Z,4.50
2018-01-30T06:50:57.908Z,4.60
2018-01-30T06:53:24.004Z,5.77
2018-01-30T06:55:50.012Z,4.90
2018-01-30T06:58:16.010Z,9.90
2018-01-30T07:00:42.021Z,11.93
2018-01-30T07:03:16.212Z,8.43
2018-01-30T07:05:42.221Z,10.90
2018-01-30T07:08:08.237Z,11.50
2018-01-30T07:10:34.240Z,9.27
2018-01-30T07:13:17.105Z,11.43
2018-01-30T07:15:43.104Z,9.23
2018-01-30T07:18:09.116Z,11.83
2018-01-30T07:20:35.113Z,10.40
2018-01-30T07:23:01.177Z,7.37
2018-01-30T07:25:27.189Z,7.33
2018-01-30T07:27:53.165Z,11.17
2018-01-30T07:30:19.181Z,9.97
2018-01-30T07:32:52.605Z,4.63
2018-01-30T07:35:18.637Z,6.57
2018-01-30T07:37:44.689Z,6.70
2018-01-30T07:40:10.689Z,8.10
2018-01-30T07:42:44.200Z,5.10
2018-01-30T07:45:10.218Z,5.53
2018-01-30T07:47:36.200Z,5.60
2018-01-30T07:50:02.200Z,5.10
2018-01-30T07:52:31.949Z,5.00
2018-01-30T07:54:57.953Z,4.53
2018-01-30T07:57:23.949Z,7.07
2018-01-30T07:59:49.964Z,6.13
2018-01-30T08:02:18.198Z,4.87
2018-01-30T08:04:44.201Z,6.07
2018-01-30T08:07:10.183Z,6.90
2018-01-30T08:09:36.189Z,6.40
2018-01-30T08:12:10.141Z,6.37
2018-01-30T08:14:36.144Z,5.90
2018-01-30T08:17:02.149Z,5.73
2018-01-30T08:19:28.148Z,4.93
2018-01-30T08:22:01.741Z,4.67
2018-01-30T08:24:27.748Z,5.60
2018-01-30T08:26:53.941Z,7.77
2018-01-30T08:29:19.972Z,9.30
2018-01-30T08:31:58.810Z,10.43
2018-01-30T08:34:24.788Z,6.70
2018-01-30T08:36:50.795Z,7.30
2018-01-30T08:39:16.773Z,6.10
2018-01-30T08:41:49.336Z,5.77
2018-01-30T08:44:15.356Z,7.17
2018-01-30T08:46:41.381Z,6.70
2018-01-30T08:49:07.368Z,4.13
2018-01-30T08:51:33.566Z,3.80
2018-01-30T08:53:59.578Z,2.83
2018-01-30T08:56:25.604Z,2.63
2018-01-30T08:58:51.681Z,3.10
2018-01-30T09:01:17.721Z,3.60
2018-01-30T09:03:44.889Z,3.20
2018-01-30T09:06:10.881Z,2.77
2018-01-30T09:08:36.896Z,3.03
2018-01-30T09:11:02.892Z,2.30
2018-01-30T09:13:37.877Z,2.90
2018-01-30T09:16:04.005Z,2.97
2018-01-30T09:18:30.029Z,2.77
2018-01-30T09:20:56.049Z,2.80
2018-01-30T09:23:26.345Z,2.40
2018-01-30T09:25:52.364Z,2.60
2018-01-30T09:28:18.385Z,2.60
2018-01-30T09:30:44.373Z,2.13
2018-01-30T09:33:16.176Z,3.83
2018-01-30T09:35:42.204Z,2.33
2018-01-30T09:38:08.228Z,2.37
2018-01-30T09:40:34.296Z,2.30
2018-01-30T09:43:06.313Z,2.47
2018-01-30T09:45:32.345Z,2.40
2018-01-30T09:47:58.373Z,2.57
2018-01-30T09:50:24.394Z,2.60
2018-01-30T09:52:50.505Z,2.10
2018-01-30T09:55:16.529Z,2.10
2018-01-30T09:57:42.520Z,2.60
2018-01-30T10:00:08.602Z,2.03
2018-01-30T10:02:34.664Z,2.20
2018-01-30T10:05:00.709Z,2.63
2018-01-30T10:07:26.724Z,2.87
2018-01-30T10:09:52.749Z,2.67
2018-01-30T10:12:33.061Z,2.53
2018-01-30T10:15:00.484Z,2.73
2018-01-30T10:17:26.501Z,2.67
2018-01-30T10:19:52.576Z,2.37
2018-01-30T10:22:24.620Z,2.37
2018-01-30T10:24:50.682Z,1.87
2018-01-30T10:27:16.666Z,1.93
2018-01-30T10:29:42.672Z,2.20
2018-01-30T10:32:08.748Z,2.10
2018-01-30T10:34:34.778Z,2.37
2018-01-30T10:37:00.753Z,2.13
2018-01-30T10:39:26.769Z,2.30
2018-01-30T10:41:53.980Z,1.70
2018-01-30T10:44:19.998Z,1.90
2018-01-30T10:46:46.025Z,2.13
2018-01-30T10:49:12.050Z,2.60
2018-01-30T10:51:44.613Z,1.73
2018-01-30T10:54:10.632Z,2.83
2018-01-30T10:56:36.614Z,2.70
2018-01-30T10:59:02.737Z,1.67
2018-01-30T11:01:29.113Z,1.40
2018-01-30T11:03:55.092Z,1.30
2018-01-30T11:06:21.117Z,1.43
2018-01-30T11:08:47.157Z,1.30
2018-01-30T11:11:19.449Z,1.73
2018-01-30T11:13:45.474Z,1.67
2018-01-30T11:16:11.492Z,1.23
2018-01-30T11:18:37.473Z,1.70
2018-01-30T11:21:03.577Z,0.90
2018-01-30T11:23:29.549Z,1.27
2018-01-30T11:25:55.572Z,0.90
2018-01-30T11:28:21.552Z,1.10
2018-01-30T11:30:47.564Z,1.93
2018-01-30T11:36:02.101Z,1.13
2018-01-30T11:38:28.111Z,1.10
2018-01-30T11:40:54.124Z,0.97
2018-01-30T11:43:21.216Z,1.27
2018-01-30T11:45:47.237Z,1.03
2018-01-30T11:48:13.281Z,1.00
2018-01-30T11:50:39.301Z,0.90
2018-01-30T11:53:08.757Z,0.97
2018-01-30T11:55:34.773Z,1.43
2018-01-30T11:58:00.797Z,0.80
2018-01-30T12:00:26.816Z,1.50
2018-01-30T12:02:56.493Z,0.90
2018-01-30T12:05:22.528Z,1.13
2018-01-30T12:07:48.563Z,1.00
2018-01-30T12:10:14.545Z,1.20
2018-01-30T12:12:44.284Z,1.10
2018-01-30T12:15:10.300Z,1.20
2018-01-30T12:17:36.317Z,1.10
2018-01-30T12:20:02.292Z,1.20
2018-01-30T12:22:28.469Z,1.13
2018-01-30T12:24:54.485Z,1.60
2018-01-30T12:27:20.511Z,1.33
2018-01-30T12:29:46.532Z,1.17
2018-01-30T12:32:27.381Z,1.07
2018-01-30T12:34:53.360Z,1.30
2018-01-30T12:37:19.341Z,1.20
2018-01-30T12:39:45.325Z,1.53
2018-01-30T12:42:18.445Z,1.53
2018-01-30T12:44:44.470Z,1.17
2018-01-30T12:47:25.392Z,1.50
2018-01-30T12:49:51.377Z,1.20
2018-01-30T12:52:17.421Z,1.30
2018-01-30T12:54:43.442Z,1.40
2018-01-30T12:57:09.431Z,1.40
2018-01-30T12:59:35.448Z,1.67
2018-01-30T13:02:01.577Z,1.40
2018-01-30T13:04:27.573Z,1.20
2018-01-30T13:06:53.629Z,1.77
2018-01-30T13:09:19.662Z,1.37
2018-01-30T13:11:45.813Z,1.70
2018-01-30T13:14:11.792Z,2.30
2018-01-30T13:16:37.776Z,1.50
2018-01-30T13:19:03.829Z,1.97
2018-01-30T13:21:42.086Z,1.73
2018-01-30T13:24:08.126Z,1.90
2018-01-30T13:26:34.136Z,1.87
2018-01-30T13:29:00.189Z,2.07
2018-01-30T13:31:38.122Z,2.00
2018-01-30T13:34:04.161Z,1.90
2018-01-30T13:36:30.165Z,2.20
2018-01-30T13:38:56.189Z,1.70
2018-01-30T13:41:23.265Z,2.20
2018-01-30T13:43:49.258Z,2.57
2018-01-30T13:46:15.254Z,2.43
2018-01-30T13:48:41.281Z,3.13
2018-01-30T13:51:08.481Z,4.10
2018-01-30T13:53:34.512Z,8.27
2018-01-30T13:56:00.545Z,4.93
2018-01-30T13:58:26.581Z,9.73
2018-01-30T14:00:52.669Z,4.13
2018-01-30T14:03:18.661Z,2.77
2018-01-30T14:05:44.685Z,2.90
2018-01-30T14:08:10.709Z,5.57
2018-01-30T14:10:36.697Z,2.80
2018-01-30T14:13:02.792Z,2.77
2018-01-30T14:15:28.757Z,3.70
2018-01-30T14:17:54.788Z,3.37
2018-01-30T14:20:20.782Z,3.70
2018-01-30T14:22:50.549Z,3.30
2018-01-30T14:25:16.599Z,3.13
2018-01-30T14:27:42.625Z,2.60
2018-01-30T14:30:08.657Z,2.57
2018-01-30T14:32:41.129Z,2.30
2018-01-30T14:35:07.175Z,2.67
2018-01-30T14:37:33.205Z,3.20
2018-01-30T14:39:59.234Z,2.77
2018-01-30T14:42:27.397Z,2.87
2018-01-30T14:44:53.393Z,3.13
2018-01-30T14:47:19.425Z,3.10
2018-01-30T14:49:45.461Z,2.80
2018-01-30T14:52:11.620Z,2.80
2018-01-30T14:54:37.621Z,2.63
2018-01-30T14:57:03.657Z,2.60
2018-01-30T14:59:29.694Z,2.90
2018-01-30T15:01:55.784Z,3.30
2018-01-30T15:04:21.813Z,2.73
2018-01-30T15:06:47.860Z,2.97
2018-01-30T15:09:13.886Z,2.90
2018-01-30T15:11:39.972Z,3.43
2018-01-30T15:14:05.969Z,3.70
2018-01-30T15:16:31.997Z,3.80
2018-01-30T15:18:57.996Z,3.90
2018-01-30T15:21:32.741Z,3.70
2018-01-30T15:23:58.785Z,3.97
2018-01-30T15:26:24.785Z,4.00
2018-01-30T15:28:50.822Z,4.37
2018-01-30T15:31:21.466Z,4.13
2018-01-30T15:33:47.456Z,3.73
2018-01-30T15:36:13.493Z,4.37
2018-01-30T15:38:39.529Z,4.20
2018-01-30T15:41:05.630Z,4.57
2018-01-30T15:43:31.680Z,5.10
2018-01-30T15:45:57.710Z,4.57
2018-01-30T15:48:23.737Z,4.93
2018-01-30T15:51:07.643Z,5.00
2018-01-30T15:53:33.670Z,4.17
2018-01-30T15:55:59.694Z,5.43
2018-01-30T15:58:25.755Z,4.33
2018-01-30T16:00:51.981Z,5.07
2018-01-30T16:03:18.009Z,5.13
2018-01-30T16:05:44.037Z,5.40
2018-01-30T16:08:10.075Z,5.40
2018-01-30T16:10:36.145Z,5.93
2018-01-30T16:13:02.139Z,5.80
2018-01-30T16:15:28.224Z,6.13
2018-01-30T16:17:54.249Z,7.47
2018-01-30T16:20:20.273Z,6.80
2018-01-30T16:22:46.265Z,6.60
2018-01-30T16:25:12.306Z,7.87
2018-01-30T16:27:38.345Z,7.67
2018-01-30T16:30:04.379Z,7.73
2018-01-30T16:32:31.441Z,7.50
2018-01-30T16:34:57.437Z,8.73
2018-01-30T16:37:23.441Z,17.07
2018-01-30T16:39:49.469Z,31.67
2018-01-30T16:42:21.101Z,19.13
2018-01-30T16:44:47.133Z,11.53
2018-01-30T16:47:13.128Z,12.03
2018-01-30T16:49:40.066Z,12.33
2018-01-30T16:52:25.877Z,9.27
2018-01-30T16:54:51.913Z,7.30
2018-01-30T16:57:17.909Z,10.77
2018-01-30T16:59:43.912Z,9.13
2018-01-30T17:02:23.973Z,6.80
2018-01-30T17:04:50.013Z,6.93
2018-01-30T17:07:16.018Z,7.80
2018-01-30T17:09:42.012Z,8.47
2018-01-30T17:12:15.993Z,8.30
2018-01-30T17:14:42.021Z,7.20
2018-01-30T17:17:08.098Z,8.30
2018-01-30T17:19:34.138Z,8.63
2018-01-30T17:22:02.233Z,8.77
2018-01-30T17:24:29.045Z,9.13
2018-01-30T17:26:55.049Z,8.70
2018-01-30T17:29:21.057Z,9.53
2018-01-30T17:32:00.068Z,10.40
2018-01-30T17:34:26.115Z,9.00
2018-01-30T17:36:52.149Z,10.47
2018-01-30T17:39:18.137Z,10.60
2018-01-30T17:41:45.171Z,10.80
2018-01-30T17:44:11.197Z,12.90
2018-01-30T17:46:37.277Z,12.93
2018-01-30T17:49:03.295Z,14.77
2018-01-30T17:51:33.218Z,14.50
2018-01-30T17:53:59.287Z,12.20
2018-01-30T17:56:25.326Z,12.67
2018-01-30T17:58:51.370Z,12.03
2018-01-30T18:01:17.419Z,11.63
2018-01-30T18:03:43.425Z,12.20
2018-01-30T18:06:09.493Z,12.27
2018-01-30T18:08:35.526Z,12.17
2018-01-30T18:11:03.994Z,14.17
2018-01-30T18:13:30.089Z,12.73
2018-01-30T18:15:56.115Z,14.63
2018-01-30T18:18:22.202Z,14.17
2018-01-30T18:20:54.560Z,14.33
2018-01-30T18:23:20.598Z,14.40
2018-01-30T18:25:46.867Z,13.57
2018-01-30T18:28:12.945Z,14.33
2018-01-30T18:30:43.383Z,13.90
2018-01-30T18:33:09.584Z,14.00
2018-01-30T18:35:36.361Z,14.67
2018-01-30T18:38:02.453Z,14.03
2018-01-30T18:40:28.572Z,14.50
2018-01-30T18:42:54.607Z,15.43
2018-01-30T18:45:21.640Z,14.90
2018-01-30T18:47:47.693Z,15.53
2018-01-30T18:50:17.090Z,15.70
2018-01-30T18:52:43.150Z,17.27
2018-01-30T18:55:09.234Z,17.57
2018-01-30T18:57:35.460Z,21.27
2018-01-30T19:00:01.508Z,22.53
2018-01-30T19:02:27.546Z,24.27
2018-01-30T19:04:53.726Z,22.57
2018-01-30T19:07:20.472Z,20.53
2018-01-30T19:09:46.855Z,15.23
2018-01-30T19:12:13.292Z,17.00
2018-01-30T19:14:39.363Z,16.23
2018-01-30T19:17:06.673Z,16.07
2018-01-30T19:19:32.697Z,15.87
2018-01-30T19:21:59.100Z,16.47
2018-01-30T19:24:25.195Z,15.60
2018-01-30T19:26:51.236Z,17.37
2018-01-30T19:29:17.556Z,16.80
2018-01-30T19:31:48.930Z,18.10
2018-01-30T19:34:15.029Z,29.03
2018-01-30T19:36:41.213Z,20.47
2018-01-30T19:39:07.563Z,17.00
2018-01-30T19:41:34.845Z,17.27
2018-01-30T19:44:00.923Z,16.90
2018-01-30T19:46:27.823Z,16.77
2018-01-30T19:48:54.059Z,16.97
2018-01-30T19:51:21.521Z,15.93
2018-01-30T19:53:47.783Z,15.30
2018-01-30T19:56:14.688Z,15.27
2018-01-30T19:58:41.419Z,14.70
2018-01-30T20:01:07.586Z,16.30
2018-01-30T20:03:34.795Z,17.43
2018-01-30T20:06:01.157Z,15.53
2018-01-30T20:08:27.324Z,16.70
2018-01-30T20:10:53.753Z,18.40
2018-01-30T20:13:19.880Z,18.03
2018-01-30T20:15:45.938Z,17.13
2018-01-30T20:18:12.373Z,17.47
2018-01-30T20:20:46.150Z,17.43
2018-01-30T20:23:12.241Z,17.03
2018-01-30T20:25:38.837Z,16.90
2018-01-30T20:28:05.999Z,17.03
2018-01-30T20:30:32.729Z,15.37
2018-01-30T20:32:58.860Z,15.70
2018-01-30T20:35:24.933Z,16.10
2018-01-30T20:37:51.019Z,16.33
2018-01-30T20:40:17.129Z,16.40
2018-01-30T20:42:43.363Z,17.93
2018-01-30T20:45:09.543Z,18.53
2018-01-30T20:47:35.974Z,17.73
2018-01-30T20:50:02.053Z,18.00
2018-01-30T20:52:28.081Z,17.37
2018-01-30T20:54:54.421Z,15.90
2018-01-30T20:57:20.598Z,19.50
2018-01-30T20:59:48.147Z,19.43
2018-01-30T21:02:14.477Z,19.20
2018-01-30T21:04:40.591Z,22.77
2018-01-30T21:07:06.645Z,24.80
2018-01-30T21:09:33.520Z,17.07
2018-01-30T21:11:59.800Z,14.67
2018-01-30T21:14:26.235Z,15.13
2018-01-30T21:16:52.339Z,14.20
2018-01-30T21:19:18.501Z,14.67
2018-01-30T21:21:46.769Z,15.87
2018-01-30T21:24:12.845Z,15.57
2018-01-30T21:26:39.169Z,14.43
2018-01-30T21:29:05.601Z,15.83
2018-01-30T21:31:31.789Z,17.03
2018-01-30T21:33:57.814Z,16.90
2018-01-30T21:36:38.748Z,16.33
2018-01-30T21:39:04.805Z,16.40
2018-01-30T21:41:47.725Z,16.57
2018-01-30T21:44:13.749Z,16.73
2018-01-30T21:46:39.791Z,19.50
2018-01-30T21:49:05.853Z,17.57
2018-01-30T21:51:32.109Z,18.07
2018-01-30T21:53:58.448Z,17.47
2018-01-30T21:56:24.465Z,19.60
2018-01-30T21:58:50.491Z,21.30
2018-01-30T22:01:16.594Z,19.53
2018-01-30T22:03:42.612Z,21.03
2018-01-30T22:06:08.668Z,22.27
2018-01-30T22:08:34.776Z,29.87
2018-01-30T22:11:04.867Z,32.60
2018-01-30T22:13:30.889Z,31.60
2018-01-30T22:15:56.945Z,30.40
2018-01-30T22:18:23.001Z,30.03
2018-01-30T22:20:53.161Z,31.67
2018-01-30T22:23:19.185Z,28.97
2018-01-30T22:25:45.248Z,28.53
2018-01-30T22:28:11.334Z,25.30
2018-01-30T22:30:45.712Z,37.73
2018-01-30T22:33:11.808Z,24.67
2018-01-30T22:35:37.864Z,18.60
2018-01-30T22:38:03.919Z,21.53
2018-01-30T22:40:33.544Z,23.63
2018-01-30T22:42:59.620Z,22.73
2018-01-30T22:45:25.686Z,23.17
